createdAt,value
2017-05-12T04:13:41.498Z,49.69
2017-05-12T04:18:43.280Z,49.26
2017-05-12T04:20:51.281Z,49.16
2017-05-12T04:42:11.978Z,49.39
2017-05-12T05:30:12.389Z,48.8
2017-05-12T05:32:13.544Z,48.96
2017-05-12T06:34:31.406Z,49.09
2017-05-12T06:47:53.868Z,50.45
2017-05-12T06:51:43.623Z,50.27
2017-05-12T06:56:23.541Z,50.01
2017-05-12T08:44:48.285Z,47.72
2017-05-12T09:18:33.255Z,38.23
2017-05-12T09:19:55.726Z,39.32
2017-05-12T09:21:18.320Z,38.16
2017-05-12T09:22:51.575Z,37.65
2017-05-12T09:24:13.529Z,37.09
2017-05-12T09:25:35.384Z,36.08
2017-05-12T09:26:57.217Z,34.27
2017-05-12T09:28:19.083Z,32.89
2017-05-12T09:29:40.996Z,32.64
2017-05-12T09:31:02.848Z,35.22
2017-05-12T09:32:24.703Z,37.06
2017-05-12T09:33:46.582Z,35.74
2017-05-12T09:35:08.649Z,34.2
2017-05-12T09:36:30.508Z,34.33
2017-05-12T09:37:52.314Z,33.77
2017-05-12T09:39:14.331Z,32.25
2017-05-12T09:40:36.222Z,30.72
2017-05-12T09:41:58.103Z,30.31
2017-05-12T09:43:26.640Z,33.03
2017-05-12T09:44:48.475Z,34.87
2017-05-12T09:46:10.526Z,34.17
2017-05-12T09:47:32.416Z,35.12
2017-05-12T09:48:54.429Z,36.62
2017-05-12T09:50:16.337Z,34.79
2017-05-12T09:51:38.478Z,31.98
2017-05-12T09:53:00.418Z,30.45
2017-05-12T09:54:22.277Z,29.44
2017-05-12T09:55:44.217Z,28.61
2017-05-12T09:57:06.050Z,28.12
2017-05-12T09:58:27.865Z,30.17
2017-05-12T09:59:49.797Z,30.5
2017-05-12T10:01:11.688Z,30.15
2017-05-12T10:02:33.625Z,31.29
2017-05-12T10:03:55.550Z,33.14
2017-05-12T10:05:17.511Z,34.15
2017-05-12T10:06:39.537Z,32.95
2017-05-12T10:08:04.208Z,30.11
2017-05-12T10:09:26.091Z,30.18
2017-05-12T10:10:47.922Z,31.21
2017-05-12T10:12:09.787Z,30.28
2017-05-12T10:13:31.705Z,29.96
2017-05-12T10:14:53.638Z,28.49
2017-05-12T10:16:15.675Z,28.4
2017-05-12T10:17:37.981Z,30.08
2017-05-12T10:18:59.882Z,31.23
2017-05-12T10:20:21.727Z,32.47
2017-05-12T10:21:43.710Z,33.34
2017-05-12T10:23:05.760Z,30.35
2017-05-12T10:24:27.923Z,27.93
2017-05-12T10:25:49.958Z,100
2017-05-12T10:27:12.086Z,100
2017-05-12T10:28:34.037Z,100
2017-05-12T10:29:55.835Z,100
2017-05-12T10:31:17.671Z,100
2017-05-12T10:32:39.488Z,100
2017-05-12T10:34:01.492Z,100
2017-05-12T10:35:23.325Z,100
2017-05-12T10:36:45.223Z,100
2017-05-12T10:38:07.364Z,100
2017-05-12T10:39:29.272Z,100
2017-05-12T10:40:51.154Z,100
2017-05-12T10:42:13.011Z,100
2017-05-12T10:43:34.869Z,100
2017-05-12T10:45:02.589Z,100
2017-05-12T10:46:24.411Z,100
2017-05-12T10:47:46.292Z,100
2017-05-12T10:49:08.266Z,100
2017-05-12T10:50:40.027Z,100
2017-05-12T10:52:01.822Z,100
2017-05-12T10:53:23.753Z,100
2017-05-12T10:54:46.721Z,100
2017-05-12T10:56:08.692Z,100
2017-05-12T10:57:30.560Z,100
2017-05-12T10:58:52.406Z,100
2017-05-12T11:00:14.361Z,100
2017-05-12T11:01:36.285Z,100
2017-05-12T11:02:58.192Z,100
2017-05-12T11:04:20.148Z,100
2017-05-12T11:05:42.457Z,100
2017-05-12T11:07:15.596Z,100
2017-05-12T11:08:38.074Z,100
2017-05-12T11:10:03.006Z,100
2017-05-12T11:11:25.389Z,100
2017-05-12T11:12:49.119Z,100
2017-05-12T11:14:11.724Z,100
2017-05-12T11:15:34.145Z,100
2017-05-12T11:16:57.509Z,100
2017-05-12T11:18:25.384Z,100
2017-05-12T11:19:52.719Z,100
2017-05-12T11:21:35.839Z,100
2017-05-12T11:23:18.240Z,100
2017-05-12T11:24:45.077Z,100
2017-05-12T11:26:11.978Z,100
2017-05-12T11:27:37.420Z,100
2017-05-12T11:29:01.058Z,100
2017-05-12T11:30:25.031Z,100
2017-05-12T11:31:48.054Z,100
2017-05-12T11:33:11.175Z,100
2017-05-12T11:34:34.998Z,100
2017-05-12T11:35:57.713Z,100
2017-05-12T11:37:20.430Z,100
2017-05-12T11:38:43.065Z,100
2017-05-12T11:40:05.570Z,100
2017-05-12T11:41:28.146Z,100
2017-05-12T11:42:50.571Z,100
2017-05-12T11:44:12.656Z,100
2017-05-12T11:45:34.787Z,100
2017-05-12T11:47:06.428Z,100
2017-05-12T11:48:38.964Z,100
2017-05-12T11:50:01.057Z,100
2017-05-12T11:51:23.123Z,100
2017-05-12T11:52:44.981Z,100
2017-05-12T11:54:07.267Z,100
2017-05-12T11:55:30.902Z,100
2017-05-12T11:56:53.555Z,100
2017-05-12T11:58:15.475Z,100
2017-05-12T11:59:37.411Z,100
2017-05-12T12:00:59.231Z,100
2017-05-12T12:02:21.234Z,100
2017-05-12T12:03:43.199Z,100
2017-05-12T12:05:05.110Z,100
2017-05-12T12:06:27.028Z,100
2017-05-12T12:07:48.904Z,100
2017-05-12T12:09:18.226Z,100
2017-05-12T12:10:40.124Z,100
2017-05-12T12:12:02.012Z,100
2017-05-12T12:13:23.833Z,100
2017-05-12T12:14:45.718Z,100
2017-05-12T12:16:07.638Z,100
2017-05-12T12:17:29.605Z,100
2017-05-12T12:18:51.406Z,100
2017-05-12T12:20:23.025Z,100
2017-05-12T12:21:44.969Z,100
2017-05-12T12:23:06.815Z,100
2017-05-12T12:24:28.827Z,100
2017-05-12T12:25:50.813Z,100
2017-05-12T12:27:12.643Z,100
2017-05-12T12:28:34.496Z,100
2017-05-12T12:30:04.442Z,100
2017-05-12T12:31:26.273Z,100
2017-05-12T12:32:48.092Z,100
2017-05-12T12:34:10.059Z,100
2017-05-12T12:35:31.934Z,100
2017-05-12T12:36:53.851Z,100
2017-05-12T12:38:15.810Z,100
2017-05-12T12:39:37.669Z,100
2017-05-12T12:40:59.487Z,100
2017-05-12T12:42:21.319Z,100
2017-05-12T12:43:43.163Z,100
2017-05-12T12:45:05.028Z,100
2017-05-12T12:46:26.923Z,100
2017-05-12T12:47:48.858Z,100
2017-05-12T12:49:10.704Z,100
2017-05-12T12:50:42.382Z,100
2017-05-12T12:52:04.348Z,100
2017-05-12T12:53:26.438Z,100
2017-05-12T12:54:48.298Z,100
2017-05-12T12:56:10.187Z,100
2017-05-12T12:57:32.025Z,100
2017-05-12T12:58:53.891Z,100
2017-05-12T13:00:15.794Z,100
2017-05-12T13:01:37.630Z,100
2017-05-12T13:02:59.511Z,100
2017-05-12T13:04:21.497Z,100
2017-05-12T13:05:43.312Z,100
2017-05-12T13:07:05.212Z,100
2017-05-12T13:08:27.060Z,100
2017-05-12T13:09:48.950Z,100
2017-05-12T13:11:10.809Z,100
2017-05-12T13:12:32.671Z,100
2017-05-12T13:13:54.592Z,100
2017-05-12T13:15:16.499Z,100
2017-05-12T13:16:38.386Z,100
2017-05-12T13:18:00.269Z,100
2017-05-12T13:19:22.263Z,100
2017-05-12T13:20:44.194Z,100
2017-05-12T13:22:06.022Z,100
2017-05-12T13:23:27.945Z,100
2017-05-12T13:24:49.731Z,100
2017-05-12T13:26:11.516Z,100
2017-05-12T13:27:33.387Z,100
2017-05-12T13:28:55.125Z,100
2017-05-12T13:30:16.920Z,100
2017-05-12T13:31:45.731Z,100
2017-05-12T13:33:13.035Z,100
2017-05-12T13:34:34.920Z,100
2017-05-12T13:35:56.645Z,100
2017-05-12T13:37:18.432Z,100
2017-05-12T13:38:40.209Z,100
2017-05-12T13:40:02.037Z,100
2017-05-12T13:41:24.841Z,100
2017-05-12T13:42:46.777Z,100
2017-05-12T13:44:08.557Z,100
2017-05-12T13:45:30.320Z,100
2017-05-12T13:46:52.086Z,100
2017-05-12T13:48:13.966Z,100
2017-05-12T13:49:35.825Z,100
2017-05-12T13:50:57.605Z,100
2017-05-12T13:52:19.385Z,100
2017-05-12T13:53:41.214Z,100
2017-05-12T13:55:02.978Z,100
2017-05-12T13:56:24.814Z,100
2017-05-12T13:57:46.628Z,100
2017-05-12T13:59:08.571Z,100
2017-05-12T14:00:30.354Z,100
2017-05-12T14:01:52.103Z,100
2017-05-12T14:03:13.949Z,100
2017-05-12T14:04:35.861Z,100
2017-05-12T14:05:57.655Z,100
2017-05-12T14:07:19.468Z,100
2017-05-12T14:08:41.182Z,100
2017-05-12T14:10:03.027Z,100
2017-05-12T14:11:24.772Z,100
2017-05-12T14:12:46.561Z,100
2017-05-12T14:14:08.434Z,100
2017-05-12T14:15:44.454Z,100
2017-05-12T14:17:06.198Z,100
2017-05-12T14:18:27.932Z,100
2017-05-12T14:19:49.704Z,100
2017-05-12T14:21:11.463Z,100
2017-05-12T14:22:33.276Z,100
2017-05-12T14:23:55.085Z,100
2017-05-12T14:25:17.897Z,100
2017-05-12T14:26:39.722Z,100
2017-05-12T14:28:01.500Z,100
2017-05-12T14:29:23.488Z,100
2017-05-12T14:30:45.380Z,100
2017-05-12T14:32:07.239Z,100
2017-05-12T14:33:29.066Z,100
2017-05-12T14:34:50.924Z,100
2017-05-12T14:36:20.896Z,100
2017-05-12T14:37:42.764Z,100
2017-05-12T14:39:04.637Z,100
2017-05-12T14:40:26.393Z,100
2017-05-12T14:41:48.499Z,100
2017-05-12T14:43:10.611Z,100
2017-05-12T14:44:32.414Z,100
2017-05-12T14:45:54.263Z,100
2017-05-12T14:47:16.165Z,100
2017-05-12T14:48:38.032Z,100
2017-05-12T14:49:59.849Z,100
2017-05-12T14:51:21.655Z,100
2017-05-12T14:52:43.482Z,100
2017-05-12T14:54:05.474Z,100
2017-05-12T14:55:27.304Z,100
2017-05-12T14:56:49.108Z,100
2017-05-12T14:58:11.023Z,100
2017-05-12T14:59:32.853Z,100
2017-05-12T15:00:54.700Z,100
2017-05-12T15:02:16.584Z,100
2017-05-12T15:03:38.551Z,100
2017-05-12T15:05:00.393Z,100
2017-05-12T15:06:22.287Z,100
2017-05-12T15:07:44.159Z,100
2017-05-12T15:09:06.054Z,100
2017-05-12T15:10:28.016Z,100
2017-05-12T15:11:49.844Z,100
2017-05-12T15:13:11.614Z,100
2017-05-12T15:14:33.480Z,100
2017-05-12T15:15:55.453Z,100
2017-05-12T15:17:26.909Z,100
2017-05-12T15:18:51.286Z,100
2017-05-12T15:20:13.180Z,100
2017-05-12T15:21:35.028Z,100
2017-05-12T15:22:56.929Z,100
2017-05-12T15:24:18.707Z,100
2017-05-12T15:25:40.629Z,100
2017-05-12T15:28:34.130Z,100
2017-05-12T15:29:56.002Z,100
2017-05-12T15:31:17.796Z,100
2017-05-12T15:32:40.001Z,100
2017-05-12T15:34:01.817Z,100
2017-05-12T15:35:23.681Z,100
2017-05-12T15:36:45.581Z,100
2017-05-12T15:38:07.550Z,100
2017-05-12T15:39:41.131Z,100
2017-05-12T15:41:03.047Z,100
2017-05-12T15:42:24.942Z,100
2017-05-12T15:43:46.958Z,100
2017-05-12T15:45:08.911Z,100
2017-05-12T15:46:30.842Z,100
2017-05-12T15:47:52.735Z,100
2017-05-12T15:49:28.114Z,100
2017-05-12T15:51:25.184Z,100
2017-05-12T15:53:06.982Z,100
2017-05-12T15:54:29.087Z,100
2017-05-12T15:55:51.007Z,100
2017-05-12T15:57:13.907Z,100
2017-05-12T15:59:53.772Z,0
2017-05-12T16:01:15.644Z,0
2017-05-12T16:02:37.421Z,0
2017-05-12T16:03:59.445Z,0
2017-05-12T16:05:21.269Z,0
2017-05-12T16:06:43.044Z,0
2017-05-12T16:08:04.943Z,0
2017-05-12T16:09:26.855Z,0
2017-05-12T16:10:49.969Z,0
2017-05-12T16:12:11.807Z,0
2017-05-12T16:13:33.714Z,0
2017-05-12T16:14:55.654Z,0
2017-05-12T16:16:17.689Z,0
2017-05-12T16:17:39.529Z,0
2017-05-12T16:19:01.421Z,0
2017-05-12T16:20:23.246Z,0
2017-05-12T16:21:45.091Z,0
2017-05-12T16:23:06.979Z,0
2017-05-12T16:24:28.843Z,0
2017-05-12T16:25:50.726Z,0
2017-05-12T16:27:13.601Z,0
2017-05-12T16:28:36.003Z,0
2017-05-12T16:29:58.002Z,0
2017-05-12T16:31:24.603Z,0
2017-05-12T16:32:46.485Z,0
2017-05-12T16:34:08.354Z,0
2017-05-12T16:35:30.184Z,0
2017-05-12T16:36:51.988Z,0
2017-05-12T16:38:13.893Z,0
2017-05-12T16:39:35.681Z,0
2017-05-12T16:40:58.548Z,0
2017-05-12T16:42:20.447Z,0
2017-05-12T16:43:42.359Z,0
2017-05-12T16:45:04.368Z,0
2017-05-12T16:46:26.303Z,0
2017-05-12T16:47:48.273Z,0
2017-05-12T16:49:10.216Z,0
2017-05-12T16:50:32.160Z,0
2017-05-12T16:51:57.088Z,0
2017-05-12T16:53:19.056Z,0
2017-05-12T16:54:40.990Z,0
2017-05-12T16:56:02.904Z,0
2017-05-12T16:57:24.836Z,0
2017-05-12T16:58:46.676Z,0
2017-05-12T17:00:08.554Z,0
2017-05-12T17:01:30.895Z,0
2017-05-12T17:02:53.043Z,0
2017-05-12T17:04:14.909Z,0
2017-05-12T17:05:36.893Z,0
2017-05-12T17:06:58.792Z,0
2017-05-12T17:08:20.791Z,0
2017-05-12T17:09:42.734Z,0
2017-05-12T17:11:04.605Z,0
2017-05-12T17:12:26.477Z,0
2017-05-12T17:13:59.858Z,0
2017-05-12T17:15:21.814Z,0
2017-05-12T17:16:43.864Z,0
2017-05-12T17:18:05.894Z,0
2017-05-12T17:19:27.824Z,0
2017-05-12T17:20:49.801Z,0
2017-05-12T17:22:11.872Z,0
2017-05-12T17:23:33.773Z,0
2017-05-12T17:24:55.662Z,0
2017-05-12T17:26:17.612Z,0
2017-05-12T17:27:39.530Z,0
2017-05-12T17:29:01.469Z,0
2017-05-12T17:30:23.372Z,0
2017-05-12T17:31:45.247Z,0
2017-05-12T17:33:07.535Z,0
2017-05-12T17:34:44.572Z,0
2017-05-12T17:36:07.105Z,0
2017-05-12T17:37:29.497Z,0
2017-05-12T17:38:51.643Z,0
2017-05-12T17:40:13.725Z,0
2017-05-12T17:41:36.238Z,0
2017-05-12T17:42:59.517Z,0
2017-05-12T17:44:26.907Z,0
2017-05-12T17:47:36.779Z,0
2017-05-12T17:50:49.133Z,0
2017-05-12T18:02:02.780Z,0
2017-05-12T18:03:27.081Z,0
2017-05-12T18:04:52.275Z,0
2017-05-12T18:06:26.319Z,0
2017-05-12T18:07:57.357Z,0
2017-05-12T18:09:36.197Z,0
2017-05-12T18:14:18.329Z,0
2017-05-12T18:15:47.074Z,0
2017-05-12T18:17:23.432Z,0
2017-05-12T18:19:04.557Z,0
2017-05-12T18:31:59.807Z,0
2017-05-12T18:47:35.698Z,0
2017-05-12T18:49:12.774Z,0
2017-05-12T18:51:03.227Z,0
2017-05-12T18:52:50.859Z,0
2017-05-12T18:54:24.392Z,0
2017-05-12T18:56:12.868Z,0
2017-05-12T19:10:18.358Z,0
2017-05-12T19:20:12.269Z,0
2017-05-12T19:27:54.526Z,0
2017-05-12T19:29:47.191Z,0
2017-05-12T19:33:25.271Z,0
2017-05-12T19:48:47.268Z,0
2017-05-12T19:51:50.461Z,0
2017-05-12T19:53:26.412Z,0
2017-05-12T19:54:59.266Z,0
2017-05-12T19:56:28.681Z,0
2017-05-12T19:57:59.518Z,0
2017-05-12T19:59:40.896Z,0
2017-05-12T20:01:18.793Z,0
2017-05-12T22:45:38.576Z,0
